sensor_id;sensor_type;location;lat;lon;timestamp;pressure;altitude;pressure_sealevel;temperature;humidity
37238;BME280;23129;49.662;8.448;2023-02-28T00:01:33;101817.00;;;-0.64;62.70
37238;BME280;23129;49.662;8.448;2023-02-28T00:04:04;101816.03;;;-0.66;62.76
37238;BME280;23129;49.662;8.448;2023-02-28T00:06:32;101819.41;;;-0.68;62.95
37238;BME280;23129;49.662;8.448;2023-02-28T00:09:01;101821.06;;;-0.69;62.52
37238;BME280;23129;49.662;8.448;2023-02-28T00:11:29;101812.41;;;-0.71;62.63
37238;BME280;23129;49.662;8.448;2023-02-28T00:13:59;101814.03;;;-0.73;62.96
37238;BME280;23129;49.662;8.448;2023-02-28T00:16:27;101821.72;;;-0.75;63.23
37238;BME280;23129;49.662;8.448;2023-02-28T00:18:55;101819.06;;;-0.76;63.30
37238;BME280;23129;49.662;8.448;2023-02-28T00:21:25;101817.31;;;-0.77;63.12
37238;BME280;23129;49.662;8.448;2023-02-28T00:23:55;101819.91;;;-0.77;63.45
37238;BME280;23129;49.662;8.448;2023-02-28T00:26:23;101818.19;;;-0.77;63.21
37238;BME280;23129;49.662;8.448;2023-02-28T00:28:52;101824.22;;;-0.76;63.32
37238;BME280;23129;49.662;8.448;2023-02-28T00:31:22;101813.94;;;-0.76;62.89
37238;BME280;23129;49.662;8.448;2023-02-28T00:33:51;101821.72;;;-0.75;63.81
37238;BME280;23129;49.662;8.448;2023-02-28T00:36:20;101820.81;;;-0.75;63.29
37238;BME280;23129;49.662;8.448;2023-02-28T00:38:50;101823.34;;;-0.77;63.21
37238;BME280;23129;49.662;8.448;2023-02-28T00:41:19;101825.84;;;-0.78;63.27
37238;BME280;23129;49.662;8.448;2023-02-28T00:43:47;101821.41;;;-0.82;63.84
37238;BME280;23129;49.662;8.448;2023-02-28T00:46:16;101821.19;;;-0.87;63.57
37238;BME280;23129;49.662;8.448;2023-02-28T00:48:44;101820.19;;;-0.90;63.77
37238;BME280;23129;49.662;8.448;2023-02-28T00:51:14;101820.94;;;-0.93;64.29
37238;BME280;23129;49.662;8.448;2023-02-28T00:53:42;101816.59;;;-0.96;63.88
37238;BME280;23129;49.662;8.448;2023-02-28T00:56:12;101816.47;;;-0.99;64.07
37238;BME280;23129;49.662;8.448;2023-02-28T00:58:40;101814.56;;;-1.03;64.14
37238;BME280;23129;49.662;8.448;2023-02-28T01:01:09;101814.44;;;-1.06;64.67
37238;BME280;23129;49.662;8.448;2023-02-28T01:03:38;101811.72;;;-1.09;64.66
37238;BME280;23129;49.662;8.448;2023-02-28T01:06:07;101809.03;;;-1.12;64.38
37238;BME280;23129;49.662;8.448;2023-02-28T01:08:35;101809.78;;;-1.15;64.26
37238;BME280;23129;49.662;8.448;2023-02-28T01:11:08;101805.38;;;-1.17;64.99
37238;BME280;23129;49.662;8.448;2023-02-28T01:13:41;101810.38;;;-1.20;65.08
37238;BME280;23129;49.662;8.448;2023-02-28T01:16:12;101812.03;;;-1.22;65.20
37238;BME280;23129;49.662;8.448;2023-02-28T01:18:41;101814.53;;;-1.24;64.98
37238;BME280;23129;49.662;8.448;2023-02-28T01:21:12;101807.56;;;-1.26;65.00
37238;BME280;23129;49.662;8.448;2023-02-28T01:23:41;101802.38;;;-1.28;65.56
37238;BME280;23129;49.662;8.448;2023-02-28T01:26:12;101808.25;;;-1.30;65.55
37238;BME280;23129;49.662;8.448;2023-02-28T01:28:42;101803.03;;;-1.32;65.45
37238;BME280;23129;49.662;8.448;2023-02-28T01:31:10;101802.97;;;-1.33;65.80
37238;BME280;23129;49.662;8.448;2023-02-28T01:33:39;101802.09;;;-1.34;65.77
37238;BME280;23129;49.662;8.448;2023-02-28T01:36:12;101797.69;;;-1.36;65.96
37238;BME280;23129;49.662;8.448;2023-02-28T01:38:42;101802.84;;;-1.36;65.66
37238;BME280;23129;49.662;8.448;2023-02-28T01:41:16;101807.03;;;-1.39;65.72
37238;BME280;23129;49.662;8.448;2023-02-28T01:44:00;101799.19;;;-1.42;65.90
37238;BME280;23129;49.662;8.448;2023-02-28T01:46:31;101797.44;;;-1.43;66.27
37238;BME280;23129;49.662;8.448;2023-02-28T01:49:08;101799.06;;;-1.45;66.34
37238;BME280;23129;49.662;8.448;2023-02-28T01:51:41;101798.09;;;-1.47;66.46
37238;BME280;23129;49.662;8.448;2023-02-28T01:54:15;101792.03;;;-1.49;66.27
37238;BME280;23129;49.662;8.448;2023-02-28T01:56:49;101788.47;;;-1.52;66.73
37238;BME280;23129;49.662;8.448;2023-02-28T01:59:24;101784.84;;;-1.56;66.30
37238;BME280;23129;49.662;8.448;2023-02-28T02:01:55;101786.50;;;-1.58;66.33
37238;BME280;23129;49.662;8.448;2023-02-28T02:04:27;101784.72;;;-1.59;67.14
37238;BME280;23129;49.662;8.448;2023-02-28T02:07:00;101782.88;;;-1.62;66.78
37238;BME280;23129;49.662;8.448;2023-02-28T02:09:28;101779.41;;;-1.64;67.49
37238;BME280;23129;49.662;8.448;2023-02-28T02:11:57;101781.09;;;-1.64;67.03
37238;BME280;23129;49.662;8.448;2023-02-28T02:14:43;101776.69;;;-1.67;67.59
37238;BME280;23129;49.662;8.448;2023-02-28T02:17:24;101775.81;;;-1.67;67.44
37238;BME280;23129;49.662;8.448;2023-02-28T02:23:47;101767.00;;;-1.72;67.48
37238;BME280;23129;49.662;8.448;2023-02-28T02:26:55;101771.28;;;-1.73;67.40
37238;BME280;23129;49.662;8.448;2023-02-28T02:30:02;101769.50;;;-1.74;67.58
37238;BME280;23129;49.662;8.448;2023-02-28T02:32:56;101763.47;;;-1.74;68.41
37238;BME280;23129;49.662;8.448;2023-02-28T02:35:37;101760.13;;;-1.73;67.91
37238;BME280;23129;49.662;8.448;2023-02-28T02:38:11;101762.69;;;-1.73;67.90
37238;BME280;23129;49.662;8.448;2023-02-28T02:40:49;101767.75;;;-1.75;68.36
37238;BME280;23129;49.662;8.448;2023-02-28T02:43:25;101768.63;;;-1.74;67.99
37238;BME280;23129;49.662;8.448;2023-02-28T02:46:02;101766.06;;;-1.74;68.34
37238;BME280;23129;49.662;8.448;2023-02-28T02:48:34;101772.03;;;-1.75;68.45
37238;BME280;23129;49.662;8.448;2023-02-28T02:51:13;101765.03;;;-1.78;68.97
37238;BME280;23129;49.662;8.448;2023-02-28T02:53:46;101765.13;;;-1.76;69.05
37238;BME280;23129;49.662;8.448;2023-02-28T02:56:19;101763.34;;;-1.77;68.56
37238;BME280;23129;49.662;8.448;2023-02-28T02:58:51;101771.88;;;-1.78;68.91
37238;BME280;23129;49.662;8.448;2023-02-28T03:01:23;101770.13;;;-1.79;68.92
37238;BME280;23129;49.662;8.448;2023-02-28T03:03:56;101771.63;;;-1.85;69.02
37238;BME280;23129;49.662;8.448;2023-02-28T03:06:26;101774.97;;;-1.86;69.12
37238;BME280;23129;49.662;8.448;2023-02-28T03:08:55;101776.63;;;-1.88;69.69
37238;BME280;23129;49.662;8.448;2023-02-28T03:11:24;101771.50;;;-1.88;69.42
37238;BME280;23129;49.662;8.448;2023-02-28T03:14:25;101762.81;;;-1.90;69.47
37238;BME280;23129;49.662;8.448;2023-02-28T03:17:40;101769.56;;;-1.92;69.71
37238;BME280;23129;49.662;8.448;2023-02-28T03:20:19;101769.56;;;-1.92;69.94
37238;BME280;23129;49.662;8.448;2023-02-28T03:23:02;101759.16;;;-1.95;69.78
37238;BME280;23129;49.662;8.448;2023-02-28T03:25:41;101769.44;;;-1.95;69.93
37238;BME280;23129;49.662;8.448;2023-02-28T03:28:16;101761.72;;;-1.95;70.08
37238;BME280;23129;49.662;8.448;2023-02-28T03:30:49;101751.38;;;-1.96;70.13
37238;BME280;23129;49.662;8.448;2023-02-28T03:33:22;101764.09;;;-1.99;69.88
37238;BME280;23129;49.662;8.448;2023-02-28T03:35:58;101761.44;;;-2.01;69.97
37238;BME280;23129;49.662;8.448;2023-02-28T03:38:33;101758.88;;;-2.01;70.46
37238;BME280;23129;49.662;8.448;2023-02-28T03:41:12;101752.00;;;-2.02;70.39
37238;BME280;23129;49.662;8.448;2023-02-28T03:43:46;101759.72;;;-2.02;70.47
37238;BME280;23129;49.662;8.448;2023-02-28T03:46:19;101758.75;;;-2.04;70.81
37238;BME280;23129;49.662;8.448;2023-02-28T03:48:55;101757.00;;;-2.05;70.96
37238;BME280;23129;49.662;8.448;2023-02-28T03:51:26;101750.13;;;-2.06;70.78
37238;BME280;23129;49.662;8.448;2023-02-28T03:54:03;101765.41;;;-2.09;70.59
37238;BME280;23129;49.662;8.448;2023-02-28T03:56:37;101761.88;;;-2.11;70.95
37238;BME280;23129;49.662;8.448;2023-02-28T03:59:12;101770.41;;;-2.12;70.72
37238;BME280;23129;49.662;8.448;2023-02-28T04:01:44;101772.00;;;-2.14;71.31
37238;BME280;23129;49.662;8.448;2023-02-28T04:04:13;101775.41;;;-2.15;71.04
37238;BME280;23129;49.662;8.448;2023-02-28T04:06:42;101767.59;;;-2.17;71.17
37238;BME280;23129;49.662;8.448;2023-02-28T04:09:14;101766.72;;;-2.17;70.78
37238;BME280;23129;49.662;8.448;2023-02-28T04:11:45;101763.22;;;-2.19;71.08
37238;BME280;23129;49.662;8.448;2023-02-28T04:14:14;101763.22;;;-2.19;71.00
37238;BME280;23129;49.662;8.448;2023-02-28T04:16:43;101763.22;;;-2.19;71.19
37238;BME280;23129;49.662;8.448;2023-02-28T04:19:12;101763.22;;;-2.19;71.13
37238;BME280;23129;49.662;8.448;2023-02-28T04:21:44;101761.50;;;-2.19;71.30
37238;BME280;23129;49.662;8.448;2023-02-28T04:24:16;101769.22;;;-2.19;71.11
37238;BME280;23129;49.662;8.448;2023-02-28T04:26:46;101763.22;;;-2.19;71.12
37238;BME280;23129;49.662;8.448;2023-02-28T04:29:21;101760.59;;;-2.21;71.17
37238;BME280;23129;49.662;8.448;2023-02-28T04:31:50;101768.22;;;-2.22;71.19
37238;BME280;23129;49.662;8.448;2023-02-28T04:34:21;101761.31;;;-2.23;71.59
37238;BME280;23129;49.662;8.448;2023-02-28T04:36:50;101757.94;;;-2.22;71.33
37238;BME280;23129;49.662;8.448;2023-02-28T04:39:40;101771.59;;;-2.23;71.74
37238;BME280;23129;49.662;8.448;2023-02-28T04:42:09;101767.34;;;-2.23;71.95
37238;BME280;23129;49.662;8.448;2023-02-28T04:44:38;101766.47;;;-2.23;72.13
37238;BME280;23129;49.662;8.448;2023-02-28T04:47:06;101771.59;;;-2.23;71.70
37238;BME280;23129;49.662;8.448;2023-02-28T04:49:35;101767.25;;;-2.24;72.43
37238;BME280;23129;49.662;8.448;2023-02-28T04:52:04;101759.53;;;-2.24;72.03
37238;BME280;23129;49.662;8.448;2023-02-28T04:54:34;101765.59;;;-2.24;72.49
37238;BME280;23129;49.662;8.448;2023-02-28T04:57:04;101766.47;;;-2.23;72.35
37238;BME280;23129;49.662;8.448;2023-02-28T04:59:33;101762.19;;;-2.23;72.23
37238;BME280;23129;49.662;8.448;2023-02-28T05:02:01;101764.84;;;-2.21;72.29
37238;BME280;23129;49.662;8.448;2023-02-28T05:04:34;101766.59;;;-2.20;72.65
37238;BME280;23129;49.662;8.448;2023-02-28T05:07:02;101770.91;;;-2.19;72.51
37238;BME280;23129;49.662;8.448;2023-02-28T05:09:31;101771.00;;;-2.18;72.28
37238;BME280;23129;49.662;8.448;2023-02-28T05:12:00;101776.13;;;-2.18;73.18
37238;BME280;23129;49.662;8.448;2023-02-28T05:14:30;101772.75;;;-2.17;72.56
37238;BME280;23129;49.662;8.448;2023-02-28T05:16:59;101771.94;;;-2.16;72.42
37238;BME280;23129;49.662;8.448;2023-02-28T05:19:27;101769.34;;;-2.16;72.79
37238;BME280;23129;49.662;8.448;2023-02-28T05:21:56;101772.84;;;-2.15;72.79
37238;BME280;23129;49.662;8.448;2023-02-28T05:24:24;101777.16;;;-2.14;72.88
37238;BME280;23129;49.662;8.448;2023-02-28T05:26:54;101776.28;;;-2.15;72.96
37238;BME280;23129;49.662;8.448;2023-02-28T05:29:23;101772.88;;;-2.14;73.18
37238;BME280;23129;49.662;8.448;2023-02-28T05:31:53;101780.53;;;-2.15;73.47
37238;BME280;23129;49.662;8.448;2023-02-28T05:34:21;101782.22;;;-2.16;73.69
37238;BME280;23129;49.662;8.448;2023-02-28T05:36:50;101782.16;;;-2.17;72.99
37238;BME280;23129;49.662;8.448;2023-02-28T05:39:18;101783.84;;;-2.18;72.95
37238;BME280;23129;49.662;8.448;2023-02-28T05:41:47;101787.16;;;-2.20;72.96
37238;BME280;23129;49.662;8.448;2023-02-28T05:44:16;101781.88;;;-2.23;73.57
37238;BME280;23129;49.662;8.448;2023-02-28T05:46:44;101784.34;;;-2.25;73.53
37238;BME280;23129;49.662;8.448;2023-02-28T05:49:14;101786.88;;;-2.26;73.44
37238;BME280;23129;49.662;8.448;2023-02-28T05:51:42;101790.22;;;-2.27;73.48
37238;BME280;23129;49.662;8.448;2023-02-28T05:54:11;101790.22;;;-2.27;73.80
37238;BME280;23129;49.662;8.448;2023-02-28T05:56:40;101788.47;;;-2.28;73.66
37238;BME280;23129;49.662;8.448;2023-02-28T05:59:11;101791.88;;;-2.30;73.74
37238;BME280;23129;49.662;8.448;2023-02-28T06:01:41;101795.22;;;-2.31;73.78
37238;BME280;23129;49.662;8.448;2023-02-28T06:04:18;101791.75;;;-2.33;73.75
37238;BME280;23129;49.662;8.448;2023-02-28T06:06:58;101790.88;;;-2.33;73.83
37238;BME280;23129;49.662;8.448;2023-02-28T06:09:27;101795.22;;;-2.31;74.27
37238;BME280;23129;49.662;8.448;2023-02-28T06:11:58;101798.75;;;-2.28;73.82
37238;BME280;23129;49.662;8.448;2023-02-28T06:14:26;101802.28;;;-2.26;73.70
37238;BME280;23129;49.662;8.448;2023-02-28T06:16:55;101802.28;;;-2.26;73.69
37238;BME280;23129;49.662;8.448;2023-02-28T06:19:27;101799.88;;;-2.23;74.57
37238;BME280;23129;49.662;8.448;2023-02-28T06:21:56;101802.56;;;-2.20;73.83
37238;BME280;23129;49.662;8.448;2023-02-28T06:24:27;101796.75;;;-2.16;73.92
37238;BME280;23129;49.662;8.448;2023-02-28T06:26:59;101802.91;;;-2.13;73.97
37238;BME280;23129;49.662;8.448;2023-02-28T06:29:33;101799.75;;;-2.07;73.90
37238;BME280;23129;49.662;8.448;2023-02-28T06:32:02;101807.81;;;-1.99;73.88
37238;BME280;23129;49.662;8.448;2023-02-28T06:34:32;101808.13;;;-1.92;73.82
37238;BME280;23129;49.662;8.448;2023-02-28T06:37:01;101799.97;;;-1.83;73.76
37238;BME280;23129;49.662;8.448;2023-02-28T06:39:30;101811.56;;;-1.73;73.68
37238;BME280;23129;49.662;8.448;2023-02-28T06:41:58;101810.19;;;-1.65;74.15
37238;BME280;23129;49.662;8.448;2023-02-28T06:44:27;101802.94;;;-1.54;74.02
37238;BME280;23129;49.662;8.448;2023-02-28T06:47:03;101803.47;;;-1.42;74.14
37238;BME280;23129;49.662;8.448;2023-02-28T06:49:35;101807.50;;;-1.28;73.98
37238;BME280;23129;49.662;8.448;2023-02-28T06:52:04;101808.91;;;-1.15;74.57
37238;BME280;23129;49.662;8.448;2023-02-28T06:54:32;101805.22;;;-1.01;74.29
37238;BME280;23129;49.662;8.448;2023-02-28T06:57:01;101812.69;;;-0.86;74.13
37238;BME280;23129;49.662;8.448;2023-02-28T06:59:29;101817.44;;;-0.74;74.10
37238;BME280;23129;49.662;8.448;2023-02-28T07:01:58;101822.22;;;-0.62;74.05
37238;BME280;23129;49.662;8.448;2023-02-28T07:04:27;101821.81;;;-0.51;74.34
37238;BME280;23129;49.662;8.448;2023-02-28T07:06:57;101829.22;;;-0.37;74.07
37238;BME280;23129;49.662;8.448;2023-02-28T07:09:26;101829.78;;;-0.22;73.76
37238;BME280;23129;49.662;8.448;2023-02-28T07:11:57;101832.03;;;-0.09;73.55
37238;BME280;23129;49.662;8.448;2023-02-28T07:14:26;101834.22;;;0.03;73.86
37238;BME280;23129;49.662;8.448;2023-02-28T07:16:54;101833.75;;;0.15;73.50
37238;BME280;23129;49.662;8.448;2023-02-28T07:19:22;101836.63;;;0.22;73.29
37238;BME280;23129;49.662;8.448;2023-02-28T07:21:51;101836.69;;;0.24;73.36
37238;BME280;23129;49.662;8.448;2023-02-28T07:24:20;101839.97;;;0.20;73.17
37238;BME280;23129;49.662;8.448;2023-02-28T07:26:51;101841.50;;;0.15;73.16
37238;BME280;23129;49.662;8.448;2023-02-28T07:29:19;101836.22;;;0.12;73.08
37238;BME280;23129;49.662;8.448;2023-02-28T07:31:48;101846.44;;;0.09;73.12
37238;BME280;23129;49.662;8.448;2023-02-28T07:34:17;101837.78;;;0.07;73.19
37238;BME280;23129;49.662;8.448;2023-02-28T07:36:46;101838.41;;;0.01;73.34
37238;BME280;23129;49.662;8.448;2023-02-28T07:39:14;101842.81;;;0.04;73.54
37238;BME280;23129;49.662;8.448;2023-02-28T07:41:44;101844.56;;;0.05;72.88
37238;BME280;23129;49.662;8.448;2023-02-28T07:44:12;101846.44;;;0.09;72.96
37238;BME280;23129;49.662;8.448;2023-02-28T07:46:41;101853.59;;;0.16;73.35
37238;BME280;23129;49.662;8.448;2023-02-28T07:49:10;101847.91;;;0.25;72.78
37238;BME280;23129;49.662;8.448;2023-02-28T07:51:38;101842.19;;;0.33;72.71
37238;BME280;23129;49.662;8.448;2023-02-28T07:54:07;101850.28;;;0.42;72.33
37238;BME280;23129;49.662;8.448;2023-02-28T07:56:35;101847.91;;;0.49;72.61
37238;BME280;23129;49.662;8.448;2023-02-28T07:59:05;101846.47;;;0.57;72.49
37238;BME280;23129;49.662;8.448;2023-02-28T08:01:33;101846.81;;;0.66;72.28
37238;BME280;23129;49.662;8.448;2023-02-28T08:04:02;101852.41;;;0.78;72.20
37238;BME280;23129;49.662;8.448;2023-02-28T08:06:30;101845.88;;;0.89;72.19
37238;BME280;23129;49.662;8.448;2023-02-28T08:08:59;101842.91;;;1.03;71.84
37238;BME280;23129;49.662;8.448;2023-02-28T08:11:28;101855.69;;;1.25;71.75
37238;BME280;23129;49.662;8.448;2023-02-28T08:13:57;101851.53;;;1.56;71.40
37238;BME280;23129;49.662;8.448;2023-02-28T08:16:27;101855.81;;;1.82;71.12
37238;BME280;23129;49.662;8.448;2023-02-28T08:18:55;101849.50;;;2.03;70.91
37238;BME280;23129;49.662;8.448;2023-02-28T08:21:23;101855.03;;;2.15;70.56
37238;BME280;23129;49.662;8.448;2023-02-28T08:23:52;101851.91;;;2.25;70.50
37238;BME280;23129;49.662;8.448;2023-02-28T08:26:20;101841.09;;;2.40;70.48
37238;BME280;23129;49.662;8.448;2023-02-28T08:28:49;101833.31;;;2.72;70.10
37238;BME280;23129;49.662;8.448;2023-02-28T08:31:18;101832.75;;;3.17;69.63
37238;BME280;23129;49.662;8.448;2023-02-28T08:33:48;101822.75;;;3.69;68.86
37238;BME280;23129;49.662;8.448;2023-02-28T08:36:19;101820.28;;;4.16;68.46
37238;BME280;23129;49.662;8.448;2023-02-28T08:38:48;101816.03;;;4.62;67.82
37238;BME280;23129;49.662;8.448;2023-02-28T08:41:16;101824.53;;;5.01;67.54
37238;BME280;23129;49.662;8.448;2023-02-28T08:43:45;101820.63;;;5.26;66.70
37238;BME280;23129;49.662;8.448;2023-02-28T08:46:14;101811.34;;;5.44;66.40
37238;BME280;23129;49.662;8.448;2023-02-28T08:48:42;101822.00;;;5.61;66.40
37238;BME280;23129;49.662;8.448;2023-02-28T08:51:15;101821.41;;;5.80;66.14
37238;BME280;23129;49.662;8.448;2023-02-28T08:53:45;101809.41;;;5.91;65.93
37238;BME280;23129;49.662;8.448;2023-02-28T08:56:16;101820.06;;;6.05;65.67
37238;BME280;23129;49.662;8.448;2023-02-28T08:58:46;101813.25;;;6.18;65.50
37238;BME280;23129;49.662;8.448;2023-02-28T09:01:17;101817.84;;;6.37;65.65
37238;BME280;23129;49.662;8.448;2023-02-28T09:03:47;101808.47;;;6.55;64.56
37238;BME280;23129;49.662;8.448;2023-02-28T09:06:19;101819.06;;;6.67;64.45
37238;BME280;23129;49.662;8.448;2023-02-28T09:08:48;101814.00;;;6.82;64.35
37238;BME280;23129;49.662;8.448;2023-02-28T09:11:16;101814.09;;;6.95;64.25
37238;BME280;23129;49.662;8.448;2023-02-28T09:13:46;101809.88;;;7.06;64.04
37238;BME280;23129;49.662;8.448;2023-02-28T09:16:16;101813.41;;;7.16;63.72
37238;BME280;23129;49.662;8.448;2023-02-28T09:18:45;101813.47;;;7.26;63.37
37238;BME280;23129;49.662;8.448;2023-02-28T09:21:17;101810.97;;;7.39;63.48
37238;BME280;23129;49.662;8.448;2023-02-28T09:23:48;101818.91;;;7.55;62.86
37238;BME280;23129;49.662;8.448;2023-02-28T09:26:19;101809.38;;;7.62;62.64
37238;BME280;23129;49.662;8.448;2023-02-28T09:28:49;101808.59;;;7.72;62.57
37238;BME280;23129;49.662;8.448;2023-02-28T09:31:21;101816.47;;;7.82;62.51
37238;BME280;23129;49.662;8.448;2023-02-28T09:33:52;101820.91;;;7.96;62.44
37238;BME280;23129;49.662;8.448;2023-02-28T09:36:23;101812.22;;;8.04;62.16
37238;BME280;23129;49.662;8.448;2023-02-28T09:39:08;101807.06;;;8.22;61.73
37238;BME280;23129;49.662;8.448;2023-02-28T09:41:39;101804.56;;;8.42;61.30
37238;BME280;23129;49.662;8.448;2023-02-28T09:44:20;101811.56;;;8.55;60.67
37238;BME280;23129;49.662;8.448;2023-02-28T09:46:55;101806.34;;;8.58;60.31
37238;BME280;23129;49.662;8.448;2023-02-28T09:49:37;101811.63;;;8.74;60.44
37238;BME280;23129;49.662;8.448;2023-02-28T09:52:12;101806.44;;;8.95;59.80
37238;BME280;23129;49.662;8.448;2023-02-28T09:54:42;101803.78;;;9.03;59.59
37238;BME280;23129;49.662;8.448;2023-02-28T09:57:19;101804.66;;;8.94;59.17
37238;BME280;23129;49.662;8.448;2023-02-28T10:00:07;101802.94;;;8.99;59.29
37238;BME280;23129;49.662;8.448;2023-02-28T10:03:04;101789.00;;;9.16;58.88
37238;BME280;23129;49.662;8.448;2023-02-28T10:05:39;101785.47;;;9.29;57.50
37238;BME280;23129;49.662;8.448;2023-02-28T10:08:15;101799.41;;;9.49;57.12
37238;BME280;23129;49.662;8.448;2023-02-28T10:10:46;101790.63;;;9.75;56.51
37238;BME280;23129;49.662;8.448;2023-02-28T10:13:23;101784.44;;;9.93;55.86
37238;BME280;23129;49.662;8.448;2023-02-28T10:15:56;101789.66;;;10.08;54.78
37238;BME280;23129;49.662;8.448;2023-02-28T10:18:31;101787.00;;;10.16;53.97
37238;BME280;23129;49.662;8.448;2023-02-28T10:21:04;101780.81;;;10.23;53.36
37238;BME280;23129;49.662;8.448;2023-02-28T10:23:36;101781.66;;;10.37;53.25
37238;BME280;23129;49.662;8.448;2023-02-28T10:26:12;101785.19;;;10.36;50.83
37238;BME280;23129;49.662;8.448;2023-02-28T10:28:41;101785.19;;;10.33;51.88
37238;BME280;23129;49.662;8.448;2023-02-28T10:31:14;101777.28;;;10.39;51.72
37238;BME280;23129;49.662;8.448;2023-02-28T10:33:45;101779.84;;;10.48;51.49
37238;BME280;23129;49.662;8.448;2023-02-28T10:36:18;101780.75;;;10.47;50.58
37238;BME280;23129;49.662;8.448;2023-02-28T10:38:49;101780.78;;;10.41;48.84
37238;BME280;23129;49.662;8.448;2023-02-28T10:41:30;101782.53;;;10.39;50.13
37238;BME280;23129;49.662;8.448;2023-02-28T10:44:19;101781.72;;;10.22;49.72
37238;BME280;23129;49.662;8.448;2023-02-28T10:46:49;101774.84;;;9.99;49.55
37238;BME280;23129;49.662;8.448;2023-02-28T10:49:22;101776.56;;;10.03;49.44
37238;BME280;23129;49.662;8.448;2023-02-28T10:51:54;101768.63;;;10.17;49.03
37238;BME280;23129;49.662;8.448;2023-02-28T10:54:29;101772.13;;;10.27;48.82
37238;BME280;23129;49.662;8.448;2023-02-28T10:57:17;101779.06;;;10.25;49.32
37238;BME280;23129;49.662;8.448;2023-02-28T10:59:51;101782.69;;;9.98;49.32
37238;BME280;23129;49.662;8.448;2023-02-28T11:02:33;101780.97;;;9.89;49.65
37238;BME280;23129;49.662;8.448;2023-02-28T11:05:10;101773.03;;;10.04;49.08
37238;BME280;23129;49.662;8.448;2023-02-28T11:07:51;101772.97;;;10.23;48.62
37238;BME280;23129;49.662;8.448;2023-02-28T11:10:27;101769.50;;;10.18;48.49
37238;BME280;23129;49.662;8.448;2023-02-28T11:12:57;101778.31;;;10.01;48.59
37238;BME280;23129;49.662;8.448;2023-02-28T11:15:29;101782.69;;;10.02;48.10
37238;BME280;23129;49.662;8.448;2023-02-28T11:18:01;101774.75;;;10.18;48.06
37238;BME280;23129;49.662;8.448;2023-02-28T11:20:33;101765.09;;;10.20;48.22
37238;BME280;23129;49.662;8.448;2023-02-28T11:23:04;101768.69;;;10.11;48.00
37238;BME280;23129;49.662;8.448;2023-02-28T11:25:37;101769.53;;;10.15;47.79
37238;BME280;23129;49.662;8.448;2023-02-28T11:28:24;101763.34;;;10.33;47.40
37238;BME280;23129;49.662;8.448;2023-02-28T11:31:15;101765.84;;;10.49;46.41
37238;BME280;23129;49.662;8.448;2023-02-28T11:33:48;101765.75;;;10.62;45.86
37238;BME280;23129;49.662;8.448;2023-02-28T11:36:21;101757.81;;;10.77;45.83
37238;BME280;23129;49.662;8.448;2023-02-28T11:38:52;101755.22;;;10.74;45.40
37238;BME280;23129;49.662;8.448;2023-02-28T11:41:52;101762.25;;;10.66;44.90
37238;BME280;23129;49.662;8.448;2023-02-28T11:44:39;101763.09;;;10.72;45.14
37238;BME280;23129;49.662;8.448;2023-02-28T11:47:17;101748.91;;;10.98;44.79
37238;BME280;23129;49.662;8.448;2023-02-28T11:49:58;101751.31;;;11.18;44.50
37238;BME280;23129;49.662;8.448;2023-02-28T11:52:42;101752.84;;;11.43;44.19
37238;BME280;23129;49.662;8.448;2023-02-28T11:55:17;101742.06;;;11.68;43.87
37238;BME280;23129;49.662;8.448;2023-02-28T11:58:14;101731.31;;;11.90;44.01
37238;BME280;23129;49.662;8.448;2023-02-28T12:01:08;101735.63;;;11.97;43.73
37238;BME280;23129;49.662;8.448;2023-02-28T12:03:44;101736.31;;;12.09;43.49
37238;BME280;23129;49.662;8.448;2023-02-28T12:06:23;101734.25;;;12.31;43.13
37238;BME280;23129;49.662;8.448;2023-02-28T12:09:03;101721.72;;;12.49;42.92
37238;BME280;23129;49.662;8.448;2023-02-28T12:11:44;101722.41;;;12.62;42.70
37238;BME280;23129;49.662;8.448;2023-02-28T12:17:44;101723.03;;;12.77;42.17
37238;BME280;23129;49.662;8.448;2023-02-28T12:20:24;101720.38;;;12.79;41.92
37238;BME280;23129;49.662;8.448;2023-02-28T12:23:10;101722.88;;;12.87;41.94
37238;BME280;23129;49.662;8.448;2023-02-28T12:25:56;101726.06;;;13.04;42.10
37238;BME280;23129;49.662;8.448;2023-02-28T12:28:31;101727.78;;;13.08;41.49
37238;BME280;23129;49.662;8.448;2023-02-28T12:31:08;101727.84;;;13.05;41.23
37238;BME280;23129;49.662;8.448;2023-02-28T12:33:43;101720.63;;;13.16;41.36
37238;BME280;23129;49.662;8.448;2023-02-28T12:36:17;101722.03;;;13.36;41.20
37238;BME280;23129;49.662;8.448;2023-02-28T12:38:52;101722.72;;;13.45;41.14
37238;BME280;23129;49.662;8.448;2023-02-28T12:41:31;101720.06;;;13.47;41.16
37238;BME280;23129;49.662;8.448;2023-02-28T12:44:07;101717.31;;;13.52;41.10
37238;BME280;23129;49.662;8.448;2023-02-28T12:46:42;101704.69;;;13.69;41.19
37238;BME280;23129;49.662;8.448;2023-02-28T12:49:15;101719.19;;;13.90;40.83
37238;BME280;23129;49.662;8.448;2023-02-28T12:51:46;101704.28;;;13.89;40.71
37238;BME280;23129;49.662;8.448;2023-02-28T12:54:23;101699.88;;;13.88;41.16
37238;BME280;23129;49.662;8.448;2023-02-28T12:57:00;101717.38;;;13.50;41.12
37238;BME280;23129;49.662;8.448;2023-02-28T12:59:39;101717.97;;;13.16;41.71
37238;BME280;23129;49.662;8.448;2023-02-28T13:02:33;101712.03;;;13.05;41.98
37238;BME280;23129;49.662;8.448;2023-02-28T13:05:32;101709.09;;;13.20;42.13
37238;BME280;23129;49.662;8.448;2023-02-28T13:11:25;101701.97;;;13.74;41.42
37238;BME280;23129;49.662;8.448;2023-02-28T13:14:03;101693.69;;;13.90;41.09
37238;BME280;23129;49.662;8.448;2023-02-28T13:17:02;101704.97;;;13.97;41.30
37238;BME280;23129;49.662;8.448;2023-02-28T13:19:35;101698.13;;;13.88;40.66
37238;BME280;23129;49.662;8.448;2023-02-28T13:22:16;101702.28;;;14.00;40.73
37238;BME280;23129;49.662;8.448;2023-02-28T13:24:48;101699.38;;;14.12;40.40
37238;BME280;23129;49.662;8.448;2023-02-28T13:27:37;101699.22;;;14.19;40.90
37238;BME280;23129;49.662;8.448;2023-02-28T13:30:59;101693.19;;;14.13;41.05
37238;BME280;23129;49.662;8.448;2023-02-28T13:33:29;101697.22;;;13.89;40.44
37238;BME280;23129;49.662;8.448;2023-02-28T13:36:26;101697.56;;;13.74;41.25